sensor_id;sensor_type;location;lat;lon;timestamp;temperature;humidity
8043;DHT22;4064;48.132;11.366;2023-07-30T00:01:12;17.80;99.90
8043;DHT22;4064;48.132;11.366;2023-07-30T00:03:38;17.80;99.90
8043;DHT22;4064;48.132;11.366;2023-07-30T00:06:04;17.70;99.90
8043;DHT22;4064;48.132;11.366;2023-07-30T00:08:30;17.70;99.90
8043;DHT22;4064;48.132;11.366;2023-07-30T00:10:59;17.60;99.90
8043;DHT22;4064;48.132;11.366;2023-07-30T00:13:25;17.60;99.90
8043;DHT22;4064;48.132;11.366;2023-07-30T00:15:51;17.60;99.90
8043;DHT22;4064;48.132;11.366;2023-07-30T00:18:17;17.60;99.90
8043;DHT22;4064;48.132;11.366;2023-07-30T00:20:43;17.70;99.90
8043;DHT22;4064;48.132;11.366;2023-07-30T00:23:08;17.70;99.90
8043;DHT22;4064;48.132;11.366;2023-07-30T00:25:34;17.60;99.90
8043;DHT22;4064;48.132;11.366;2023-07-30T00:28:00;17.60;99.90
8043;DHT22;4064;48.132;11.366;2023-07-30T00:30:26;17.60;99.90
8043;DHT22;4064;48.132;11.366;2023-07-30T00:32:51;17.60;99.90
8043;DHT22;4064;48.132;11.366;2023-07-30T00:35:18;17.60;99.90
8043;DHT22;4064;48.132;11.366;2023-07-30T00:37:44;17.60;99.90
8043;DHT22;4064;48.132;11.366;2023-07-30T00:40:11;17.60;99.90
8043;DHT22;4064;48.132;11.366;2023-07-30T00:42:37;17.50;99.90
8043;DHT22;4064;48.132;11.366;2023-07-30T00:45:03;17.50;99.90
8043;DHT22;4064;48.132;11.366;2023-07-30T00:47:30;17.50;99.90
8043;DHT22;4064;48.132;11.366;2023-07-30T00:49:55;17.50;99.90
8043;DHT22;4064;48.132;11.366;2023-07-30T00:52:22;17.50;99.90
8043;DHT22;4064;48.132;11.366;2023-07-30T00:54:49;17.50;99.90
8043;DHT22;4064;48.132;11.366;2023-07-30T00:57:18;17.50;99.90
8043;DHT22;4064;48.132;11.366;2023-07-30T00:59:45;17.40;99.90
8043;DHT22;4064;48.132;11.366;2023-07-30T01:02:12;17.50;99.90
8043;DHT22;4064;48.132;11.366;2023-07-30T01:04:38;17.50;99.90
8043;DHT22;4064;48.132;11.366;2023-07-30T01:07:05;17.40;99.90
8043;DHT22;4064;48.132;11.366;2023-07-30T01:09:32;17.40;99.90
8043;DHT22;4064;48.132;11.366;2023-07-30T01:11:58;17.40;99.90
8043;DHT22;4064;48.132;11.366;2023-07-30T01:14:25;17.20;99.90
8043;DHT22;4064;48.132;11.366;2023-07-30T01:16:53;17.30;99.90
8043;DHT22;4064;48.132;11.366;2023-07-30T01:19:20;17.30;99.90
8043;DHT22;4064;48.132;11.366;2023-07-30T01:21:45;17.30;99.90
8043;DHT22;4064;48.132;11.366;2023-07-30T01:24:11;17.30;99.90
8043;DHT22;4064;48.132;11.366;2023-07-30T01:26:44;17.40;99.90
8043;DHT22;4064;48.132;11.366;2023-07-30T01:29:27;17.40;99.90
8043;DHT22;4064;48.132;11.366;2023-07-30T01:31:57;17.40;99.90
8043;DHT22;4064;48.132;11.366;2023-07-30T01:34:27;17.40;99.90
8043;DHT22;4064;48.132;11.366;2023-07-30T01:36:54;17.40;99.90
8043;DHT22;4064;48.132;11.366;2023-07-30T01:39:20;17.40;99.90
8043;DHT22;4064;48.132;11.366;2023-07-30T01:41:46;17.40;99.90
8043;DHT22;4064;48.132;11.366;2023-07-30T01:44:12;17.40;99.90
8043;DHT22;4064;48.132;11.366;2023-07-30T01:46:37;17.40;99.90
8043;DHT22;4064;48.132;11.366;2023-07-30T01:49:03;17.40;99.90
8043;DHT22;4064;48.132;11.366;2023-07-30T01:51:29;17.40;99.90
8043;DHT22;4064;48.132;11.366;2023-07-30T01:53:54;17.40;99.90
8043;DHT22;4064;48.132;11.366;2023-07-30T01:56:20;17.40;99.90
8043;DHT22;4064;48.132;11.366;2023-07-30T01:58:46;17.40;99.90
8043;DHT22;4064;48.132;11.366;2023-07-30T02:01:12;17.40;99.90
8043;DHT22;4064;48.132;11.366;2023-07-30T02:03:38;17.50;99.90
8043;DHT22;4064;48.132;11.366;2023-07-30T02:06:04;17.50;99.90
8043;DHT22;4064;48.132;11.366;2023-07-30T02:08:30;17.50;99.90
8043;DHT22;4064;48.132;11.366;2023-07-30T02:10:57;17.50;99.90
8043;DHT22;4064;48.132;11.366;2023-07-30T02:13:23;17.50;99.90
8043;DHT22;4064;48.132;11.366;2023-07-30T02:15:49;17.60;99.90
8043;DHT22;4064;48.132;11.366;2023-07-30T02:18:15;17.60;99.90
8043;DHT22;4064;48.132;11.366;2023-07-30T02:20:41;17.60;99.90
8043;DHT22;4064;48.132;11.366;2023-07-30T02:23:07;17.60;99.90
8043;DHT22;4064;48.132;11.366;2023-07-30T02:25:34;17.70;99.90
8043;DHT22;4064;48.132;11.366;2023-07-30T02:28:00;17.70;99.90
8043;DHT22;4064;48.132;11.366;2023-07-30T02:30:27;17.70;99.90
8043;DHT22;4064;48.132;11.366;2023-07-30T02:32:54;17.70;99.90
8043;DHT22;4064;48.132;11.366;2023-07-30T02:35:20;17.70;99.90
8043;DHT22;4064;48.132;11.366;2023-07-30T02:37:45;17.70;99.90
8043;DHT22;4064;48.132;11.366;2023-07-30T02:40:11;17.70;99.90
8043;DHT22;4064;48.132;11.366;2023-07-30T02:42:37;17.70;99.90
8043;DHT22;4064;48.132;11.366;2023-07-30T02:45:04;17.80;99.90
8043;DHT22;4064;48.132;11.366;2023-07-30T02:47:30;17.80;99.90
8043;DHT22;4064;48.132;11.366;2023-07-30T02:49:56;17.80;99.90
8043;DHT22;4064;48.132;11.366;2023-07-30T02:52:22;17.80;99.90
8043;DHT22;4064;48.132;11.366;2023-07-30T02:54:48;17.80;99.90
8043;DHT22;4064;48.132;11.366;2023-07-30T02:57:14;17.80;99.90
8043;DHT22;4064;48.132;11.366;2023-07-30T02:59:40;17.80;99.90
8043;DHT22;4064;48.132;11.366;2023-07-30T03:02:06;17.80;99.90
8043;DHT22;4064;48.132;11.366;2023-07-30T03:04:32;17.80;99.90
8043;DHT22;4064;48.132;11.366;2023-07-30T03:06:58;17.80;99.90
8043;DHT22;4064;48.132;11.366;2023-07-30T03:09:24;17.70;99.90
8043;DHT22;4064;48.132;11.366;2023-07-30T03:11:51;17.70;99.90
8043;DHT22;4064;48.132;11.366;2023-07-30T03:14:17;17.70;99.90
8043;DHT22;4064;48.132;11.366;2023-07-30T03:16:46;17.60;99.90
8043;DHT22;4064;48.132;11.366;2023-07-30T03:19:12;17.60;99.90
8043;DHT22;4064;48.132;11.366;2023-07-30T03:21:38;17.60;99.90
8043;DHT22;4064;48.132;11.366;2023-07-30T03:24:04;17.50;99.90
8043;DHT22;4064;48.132;11.366;2023-07-30T03:26:30;17.40;99.90
8043;DHT22;4064;48.132;11.366;2023-07-30T03:28:55;17.50;99.90
8043;DHT22;4064;48.132;11.366;2023-07-30T03:31:21;17.50;99.90
8043;DHT22;4064;48.132;11.366;2023-07-30T03:33:47;17.50;99.90
8043;DHT22;4064;48.132;11.366;2023-07-30T03:36:13;17.40;99.90
8043;DHT22;4064;48.132;11.366;2023-07-30T03:38:40;17.40;99.90
8043;DHT22;4064;48.132;11.366;2023-07-30T03:41:06;17.40;99.90
8043;DHT22;4064;48.132;11.366;2023-07-30T03:43:33;17.30;99.90
8043;DHT22;4064;48.132;11.366;2023-07-30T03:45:59;17.40;99.90
8043;DHT22;4064;48.132;11.366;2023-07-30T03:48:25;17.30;99.90
8043;DHT22;4064;48.132;11.366;2023-07-30T03:50:51;17.30;99.90
8043;DHT22;4064;48.132;11.366;2023-07-30T03:53:17;17.20;99.90
8043;DHT22;4064;48.132;11.366;2023-07-30T03:55:43;17.30;99.90
8043;DHT22;4064;48.132;11.366;2023-07-30T03:58:08;17.20;99.90
8043;DHT22;4064;48.132;11.366;2023-07-30T04:00:34;17.20;99.90
8043;DHT22;4064;48.132;11.366;2023-07-30T04:03:00;17.30;99.90
8043;DHT22;4064;48.132;11.366;2023-07-30T04:05:26;17.30;99.90
8043;DHT22;4064;48.132;11.366;2023-07-30T04:07:51;17.30;99.90
8043;DHT22;4064;48.132;11.366;2023-07-30T04:10:17;17.30;99.90
8043;DHT22;4064;48.132;11.366;2023-07-30T04:12:44;17.30;99.90
8043;DHT22;4064;48.132;11.366;2023-07-30T04:15:10;17.30;99.90
8043;DHT22;4064;48.132;11.366;2023-07-30T04:17:39;17.30;99.90
8043;DHT22;4064;48.132;11.366;2023-07-30T04:20:05;17.30;99.90
8043;DHT22;4064;48.132;11.366;2023-07-30T04:22:31;17.30;99.90
8043;DHT22;4064;48.132;11.366;2023-07-30T04:24:57;17.30;99.90
8043;DHT22;4064;48.132;11.366;2023-07-30T04:27:23;17.30;99.90
8043;DHT22;4064;48.132;11.366;2023-07-30T04:29:48;17.40;99.90
8043;DHT22;4064;48.132;11.366;2023-07-30T04:32:14;17.40;99.90
8043;DHT22;4064;48.132;11.366;2023-07-30T04:34:40;17.40;99.90
8043;DHT22;4064;48.132;11.366;2023-07-30T04:37:06;17.40;99.90
8043;DHT22;4064;48.132;11.366;2023-07-30T04:39:32;17.50;99.90
8043;DHT22;4064;48.132;11.366;2023-07-30T04:41:58;17.50;99.90
8043;DHT22;4064;48.132;11.366;2023-07-30T04:44:24;17.50;99.90
8043;DHT22;4064;48.132;11.366;2023-07-30T04:46:50;17.50;99.90
8043;DHT22;4064;48.132;11.366;2023-07-30T04:49:16;17.50;99.90
8043;DHT22;4064;48.132;11.366;2023-07-30T04:51:41;17.60;99.90
8043;DHT22;4064;48.132;11.366;2023-07-30T04:54:07;17.60;99.90
8043;DHT22;4064;48.132;11.366;2023-07-30T04:56:33;17.70;99.90
8043;DHT22;4064;48.132;11.366;2023-07-30T04:58:59;17.80;99.90
8043;DHT22;4064;48.132;11.366;2023-07-30T05:01:25;17.80;99.90
8043;DHT22;4064;48.132;11.366;2023-07-30T05:03:53;17.90;99.90
8043;DHT22;4064;48.132;11.366;2023-07-30T05:06:19;17.90;99.90
8043;DHT22;4064;48.132;11.366;2023-07-30T05:08:45;17.90;99.90
8043;DHT22;4064;48.132;11.366;2023-07-30T05:11:10;17.90;99.90
8043;DHT22;4064;48.132;11.366;2023-07-30T05:13:36;17.90;99.90
8043;DHT22;4064;48.132;11.366;2023-07-30T05:16:02;17.90;99.90
8043;DHT22;4064;48.132;11.366;2023-07-30T05:18:28;18.00;99.90
8043;DHT22;4064;48.132;11.366;2023-07-30T05:20:54;18.20;99.90
8043;DHT22;4064;48.132;11.366;2023-07-30T05:23:21;19.00;99.90
8043;DHT22;4064;48.132;11.366;2023-07-30T05:25:46;20.50;99.90
8043;DHT22;4064;48.132;11.366;2023-07-30T05:28:13;21.70;99.90
8043;DHT22;4064;48.132;11.366;2023-07-30T05:30:38;22.40;99.90
8043;DHT22;4064;48.132;11.366;2023-07-30T05:33:04;21.90;99.90
8043;DHT22;4064;48.132;11.366;2023-07-30T05:35:30;21.30;99.90
8043;DHT22;4064;48.132;11.366;2023-07-30T05:37:56;21.00;99.90
8043;DHT22;4064;48.132;11.366;2023-07-30T05:40:22;20.60;99.90
8043;DHT22;4064;48.132;11.366;2023-07-30T05:42:48;20.20;99.90
8043;DHT22;4064;48.132;11.366;2023-07-30T05:45:14;20.20;99.90
8043;DHT22;4064;48.132;11.366;2023-07-30T05:47:40;20.10;99.90
8043;DHT22;4064;48.132;11.366;2023-07-30T05:50:06;20.00;99.90
8043;DHT22;4064;48.132;11.366;2023-07-30T05:52:32;20.00;99.90
8043;DHT22;4064;48.132;11.366;2023-07-30T05:54:58;19.90;99.90
8043;DHT22;4064;48.132;11.366;2023-07-30T05:57:24;19.90;99.90
8043;DHT22;4064;48.132;11.366;2023-07-30T05:59:50;19.80;99.90
8043;DHT22;4064;48.132;11.366;2023-07-30T06:02:16;19.80;99.90
8043;DHT22;4064;48.132;11.366;2023-07-30T06:04:42;19.80;99.90
8043;DHT22;4064;48.132;11.366;2023-07-30T06:07:07;19.80;99.90
8043;DHT22;4064;48.132;11.366;2023-07-30T06:09:33;19.90;99.90
8043;DHT22;4064;48.132;11.366;2023-07-30T06:11:59;20.00;99.90
8043;DHT22;4064;48.132;11.366;2023-07-30T06:14:25;20.00;99.90
8043;DHT22;4064;48.132;11.366;2023-07-30T06:16:53;20.10;99.90
8043;DHT22;4064;48.132;11.366;2023-07-30T06:19:19;20.30;99.90
8043;DHT22;4064;48.132;11.366;2023-07-30T06:21:45;20.40;99.90
8043;DHT22;4064;48.132;11.366;2023-07-30T06:24:11;20.40;99.90
8043;DHT22;4064;48.132;11.366;2023-07-30T06:26:37;20.50;99.90
8043;DHT22;4064;48.132;11.366;2023-07-30T06:29:02;20.70;99.90
8043;DHT22;4064;48.132;11.366;2023-07-30T06:31:28;20.70;99.90
8043;DHT22;4064;48.132;11.366;2023-07-30T06:33:55;20.60;99.90
8043;DHT22;4064;48.132;11.366;2023-07-30T06:36:20;20.60;99.90
8043;DHT22;4064;48.132;11.366;2023-07-30T06:38:46;20.70;99.90
8043;DHT22;4064;48.132;11.366;2023-07-30T06:41:12;20.90;99.90
8043;DHT22;4064;48.132;11.366;2023-07-30T06:43:37;21.00;99.90
8043;DHT22;4064;48.132;11.366;2023-07-30T06:46:03;21.20;99.90
8043;DHT22;4064;48.132;11.366;2023-07-30T06:48:29;21.30;99.90
8043;DHT22;4064;48.132;11.366;2023-07-30T06:50:54;21.50;99.90
8043;DHT22;4064;48.132;11.366;2023-07-30T06:53:20;21.50;99.90
8043;DHT22;4064;48.132;11.366;2023-07-30T06:55:46;21.80;99.90
8043;DHT22;4064;48.132;11.366;2023-07-30T06:58:11;21.80;99.90
8043;DHT22;4064;48.132;11.366;2023-07-30T07:00:37;21.70;99.90
8043;DHT22;4064;48.132;11.366;2023-07-30T07:03:03;21.90;99.90
8043;DHT22;4064;48.132;11.366;2023-07-30T07:05:29;22.00;99.90
8043;DHT22;4064;48.132;11.366;2023-07-30T07:07:55;21.80;99.90
8043;DHT22;4064;48.132;11.366;2023-07-30T07:10:21;21.90;99.90
8043;DHT22;4064;48.132;11.366;2023-07-30T07:12:46;22.00;99.90
8043;DHT22;4064;48.132;11.366;2023-07-30T07:15:13;22.10;99.90
8043;DHT22;4064;48.132;11.366;2023-07-30T07:17:38;22.30;99.90
8043;DHT22;4064;48.132;11.366;2023-07-30T07:20:05;22.30;99.90
8043;DHT22;4064;48.132;11.366;2023-07-30T07:22:32;22.20;99.90
8043;DHT22;4064;48.132;11.366;2023-07-30T07:24:58;22.20;99.90
8043;DHT22;4064;48.132;11.366;2023-07-30T07:27:24;22.40;99.90
8043;DHT22;4064;48.132;11.366;2023-07-30T07:29:50;22.90;99.90
8043;DHT22;4064;48.132;11.366;2023-07-30T07:32:17;22.60;99.90
8043;DHT22;4064;48.132;11.366;2023-07-30T07:34:46;22.70;99.90
8043;DHT22;4064;48.132;11.366;2023-07-30T07:37:12;23.10;99.90
8043;DHT22;4064;48.132;11.366;2023-07-30T07:39:41;23.10;99.90
8043;DHT22;4064;48.132;11.366;2023-07-30T07:42:07;23.00;99.90
8043;DHT22;4064;48.132;11.366;2023-07-30T07:44:32;23.00;99.90
8043;DHT22;4064;48.132;11.366;2023-07-30T07:46:58;23.20;99.90
8043;DHT22;4064;48.132;11.366;2023-07-30T07:49:24;23.60;99.90
8043;DHT22;4064;48.132;11.366;2023-07-30T07:51:49;24.10;99.90
8043;DHT22;4064;48.132;11.366;2023-07-30T07:54:15;23.80;99.90
8043;DHT22;4064;48.132;11.366;2023-07-30T07:56:41;23.40;99.90
8043;DHT22;4064;48.132;11.366;2023-07-30T07:59:07;23.10;99.90
8043;DHT22;4064;48.132;11.366;2023-07-30T08:01:33;23.40;99.90
8043;DHT22;4064;48.132;11.366;2023-07-30T08:03:59;23.10;99.90
8043;DHT22;4064;48.132;11.366;2023-07-30T08:06:24;22.80;99.90
8043;DHT22;4064;48.132;11.366;2023-07-30T08:08:50;23.20;99.90
8043;DHT22;4064;48.132;11.366;2023-07-30T08:11:16;23.30;99.90
8043;DHT22;4064;48.132;11.366;2023-07-30T08:13:42;23.30;99.90
8043;DHT22;4064;48.132;11.366;2023-07-30T08:16:08;23.30;99.90
8043;DHT22;4064;48.132;11.366;2023-07-30T08:18:34;23.00;99.90
8043;DHT22;4064;48.132;11.366;2023-07-30T08:21:03;23.20;99.90
8043;DHT22;4064;48.132;11.366;2023-07-30T08:23:29;24.00;99.90
8043;DHT22;4064;48.132;11.366;2023-07-30T08:25:54;24.00;99.90
8043;DHT22;4064;48.132;11.366;2023-07-30T08:28:20;24.00;99.90
8043;DHT22;4064;48.132;11.366;2023-07-30T08:30:46;23.40;99.90
8043;DHT22;4064;48.132;11.366;2023-07-30T08:33:12;23.00;99.90
8043;DHT22;4064;48.132;11.366;2023-07-30T08:35:38;23.80;99.90
8043;DHT22;4064;48.132;11.366;2023-07-30T08:38:03;24.70;99.90
8043;DHT22;4064;48.132;11.366;2023-07-30T08:40:29;25.40;99.90
8043;DHT22;4064;48.132;11.366;2023-07-30T08:42:55;25.40;99.90
8043;DHT22;4064;48.132;11.366;2023-07-30T08:45:21;25.50;99.90
8043;DHT22;4064;48.132;11.366;2023-07-30T08:47:47;24.70;99.60
8043;DHT22;4064;48.132;11.366;2023-07-30T08:50:13;25.10;99.40
8043;DHT22;4064;48.132;11.366;2023-07-30T08:52:39;25.50;99.70
8043;DHT22;4064;48.132;11.366;2023-07-30T08:55:06;25.80;98.00
8043;DHT22;4064;48.132;11.366;2023-07-30T08:57:33;26.30;98.90
8043;DHT22;4064;48.132;11.366;2023-07-30T09:00:11;26.50;95.60
8043;DHT22;4064;48.132;11.366;2023-07-30T09:05:10;26.90;94.90
8043;DHT22;4064;48.132;11.366;2023-07-30T09:07:36;26.90;93.20
8043;DHT22;4064;48.132;11.366;2023-07-30T09:10:01;26.30;92.90
8043;DHT22;4064;48.132;11.366;2023-07-30T09:12:32;26.50;93.70
8043;DHT22;4064;48.132;11.366;2023-07-30T09:14:58;26.80;92.70
8043;DHT22;4064;48.132;11.366;2023-07-30T09:17:24;26.90;91.80
8043;DHT22;4064;48.132;11.366;2023-07-30T09:19:51;27.10;92.40
8043;DHT22;4064;48.132;11.366;2023-07-30T09:22:36;27.30;90.10
8043;DHT22;4064;48.132;11.366;2023-07-30T09:25:04;27.80;88.90
8043;DHT22;4064;48.132;11.366;2023-07-30T09:27:31;27.70;87.40
8043;DHT22;4064;48.132;11.366;2023-07-30T09:29:59;27.30;90.20
8043;DHT22;4064;48.132;11.366;2023-07-30T09:32:34;26.50;90.60
8043;DHT22;4064;48.132;11.366;2023-07-30T09:35:10;26.70;90.80
8043;DHT22;4064;48.132;11.366;2023-07-30T09:37:38;27.40;86.70
8043;DHT22;4064;48.132;11.366;2023-07-30T09:40:06;27.50;86.30
8043;DHT22;4064;48.132;11.366;2023-07-30T09:42:32;27.20;87.00
8043;DHT22;4064;48.132;11.366;2023-07-30T09:45:05;27.50;84.20
8043;DHT22;4064;48.132;11.366;2023-07-30T09:47:32;27.40;80.80
8043;DHT22;4064;48.132;11.366;2023-07-30T09:49:59;27.20;81.40
8043;DHT22;4064;48.132;11.366;2023-07-30T09:52:25;27.80;80.00
8043;DHT22;4064;48.132;11.366;2023-07-30T09:54:52;27.50;80.70
8043;DHT22;4064;48.132;11.366;2023-07-30T09:57:18;26.70;78.90
8043;DHT22;4064;48.132;11.366;2023-07-30T09:59:43;26.50;82.00
8043;DHT22;4064;48.132;11.366;2023-07-30T10:02:10;25.60;83.20
8043;DHT22;4064;48.132;11.366;2023-07-30T10:04:42;25.10;83.90
8043;DHT22;4064;48.132;11.366;2023-07-30T10:07:14;24.30;87.20
8043;DHT22;4064;48.132;11.366;2023-07-30T10:09:44;23.50;91.30
8043;DHT22;4064;48.132;11.366;2023-07-30T10:12:16;23.00;92.20
8043;DHT22;4064;48.132;11.366;2023-07-30T10:14:43;22.80;93.60
8043;DHT22;4064;48.132;11.366;2023-07-30T10:17:11;23.10;93.70
8043;DHT22;4064;48.132;11.366;2023-07-30T10:19:37;23.20;93.80
8043;DHT22;4064;48.132;11.366;2023-07-30T10:25:01;23.90;94.40
8043;DHT22;4064;48.132;11.366;2023-07-30T10:27:38;24.60;93.60
8043;DHT22;4064;48.132;11.366;2023-07-30T10:30:31;24.90;93.80
8043;DHT22;4064;48.132;11.366;2023-07-30T10:35:44;25.10;92.10
8043;DHT22;4064;48.132;11.366;2023-07-30T10:40:40;25.70;92.50
8043;DHT22;4064;48.132;11.366;2023-07-30T10:43:18;25.30;91.50
8043;DHT22;4064;48.132;11.366;2023-07-30T10:45:52;25.10;91.80
8043;DHT22;4064;48.132;11.366;2023-07-30T10:48:18;25.10;92.20
8043;DHT22;4064;48.132;11.366;2023-07-30T10:50:44;25.30;92.40
8043;DHT22;4064;48.132;11.366;2023-07-30T10:53:14;25.70;92.40
8043;DHT22;4064;48.132;11.366;2023-07-30T10:55:42;25.80;89.80
8043;DHT22;4064;48.132;11.366;2023-07-30T10:58:07;25.80;88.50
8043;DHT22;4064;48.132;11.366;2023-07-30T11:00:33;25.60;90.00
8043;DHT22;4064;48.132;11.366;2023-07-30T11:02:59;25.40;89.20
8043;DHT22;4064;48.132;11.366;2023-07-30T11:05:25;25.80;89.20
8043;DHT22;4064;48.132;11.366;2023-07-30T11:07:51;25.80;86.10
8043;DHT22;4064;48.132;11.366;2023-07-30T11:10:17;25.40;86.70
8043;DHT22;4064;48.132;11.366;2023-07-30T11:12:43;25.50;85.30
8043;DHT22;4064;48.132;11.366;2023-07-30T11:15:09;25.90;86.10
8043;DHT22;4064;48.132;11.366;2023-07-30T11:17:35;26.10;87.10
8043;DHT22;4064;48.132;11.366;2023-07-30T11:20:01;26.00;84.10
8043;DHT22;4064;48.132;11.366;2023-07-30T11:22:31;25.90;85.20
8043;DHT22;4064;48.132;11.366;2023-07-30T11:24:58;25.50;82.10
8043;DHT22;4064;48.132;11.366;2023-07-30T11:27:24;25.20;83.60
8043;DHT22;4064;48.132;11.366;2023-07-30T11:29:56;25.00;85.90
8043;DHT22;4064;48.132;11.366;2023-07-30T11:32:22;24.90;83.40
8043;DHT22;4064;48.132;11.366;2023-07-30T11:34:52;25.40;84.50
8043;DHT22;4064;48.132;11.366;2023-07-30T11:37:19;26.00;84.10
8043;DHT22;4064;48.132;11.366;2023-07-30T11:39:45;26.00;82.40
8043;DHT22;4064;48.132;11.366;2023-07-30T11:42:11;25.50;84.20
8043;DHT22;4064;48.132;11.366;2023-07-30T11:44:38;25.30;87.50
8043;DHT22;4064;48.132;11.366;2023-07-30T11:47:05;25.60;86.50
8043;DHT22;4064;48.132;11.366;2023-07-30T11:49:30;25.70;85.90
8043;DHT22;4064;48.132;11.366;2023-07-30T11:52:09;25.60;84.70
8043;DHT22;4064;48.132;11.366;2023-07-30T11:54:36;25.00;87.60
8043;DHT22;4064;48.132;11.366;2023-07-30T11:57:02;25.30;88.10
8043;DHT22;4064;48.132;11.366;2023-07-30T11:59:28;25.90;87.40
8043;DHT22;4064;48.132;11.366;2023-07-30T12:01:55;26.10;88.20
8043;DHT22;4064;48.132;11.366;2023-07-30T12:04:22;26.10;88.90
8043;DHT22;4064;48.132;11.366;2023-07-30T12:06:51;25.40;88.20
8043;DHT22;4064;48.132;11.366;2023-07-30T12:09:19;25.00;90.00
8043;DHT22;4064;48.132;11.366;2023-07-30T12:14:19;24.90;91.70
8043;DHT22;4064;48.132;11.366;2023-07-30T12:16:45;24.50;91.80
8043;DHT22;4064;48.132;11.366;2023-07-30T12:19:11;23.90;93.50
8043;DHT22;4064;48.132;11.366;2023-07-30T12:21:37;23.90;93.60
8043;DHT22;4064;48.132;11.366;2023-07-30T12:24:02;23.90;94.70
8043;DHT22;4064;48.132;11.366;2023-07-30T12:26:29;23.60;94.30
8043;DHT22;4064;48.132;11.366;2023-07-30T12:28:54;23.70;94.40
8043;DHT22;4064;48.132;11.366;2023-07-30T12:31:20;24.60;94.40
8043;DHT22;4064;48.132;11.366;2023-07-30T12:33:46;25.00;93.90
8043;DHT22;4064;48.132;11.366;2023-07-30T12:36:12;25.40;94.00
8043;DHT22;4064;48.132;11.366;2023-07-30T12:38:37;26.10;92.80
8043;DHT22;4064;48.132;11.366;2023-07-30T12:41:03;25.90;91.20
8043;DHT22;4064;48.132;11.366;2023-07-30T12:43:29;25.20;92.10
8043;DHT22;4064;48.132;11.366;2023-07-30T12:45:54;24.90;92.80
8043;DHT22;4064;48.132;11.366;2023-07-30T12:48:20;24.40;93.90
8043;DHT22;4064;48.132;11.366;2023-07-30T12:50:46;24.40;95.60
8043;DHT22;4064;48.132;11.366;2023-07-30T12:53:11;25.30;95.00
8043;DHT22;4064;48.132;11.366;2023-07-30T12:55:37;26.10;94.40
8043;DHT22;4064;48.132;11.366;2023-07-30T12:58:04;26.50;94.20
8043;DHT22;4064;48.132;11.366;2023-07-30T13:00:30;26.30;94.60
8043;DHT22;4064;48.132;11.366;2023-07-30T13:02:55;26.30;94.10
8043;DHT22;4064;48.132;11.366;2023-07-30T13:05:22;26.50;93.10
8043;DHT22;4064;48.132;11.366;2023-07-30T13:07:48;26.30;92.70
8043;DHT22;4064;48.132;11.366;2023-07-30T13:10:14;25.80;92.70
8043;DHT22;4064;48.132;11.366;2023-07-30T13:12:40;25.20;93.40
8043;DHT22;4064;48.132;11.366;2023-07-30T13:15:06;24.90;95.10
8043;DHT22;4064;48.132;11.366;2023-07-30T13:17:32;24.80;95.10
8043;DHT22;4064;48.132;11.366;2023-07-30T13:19:58;25.40;94.90
8043;DHT22;4064;48.132;11.366;2023-07-30T13:22:24;25.50;94.50
8043;DHT22;4064;48.132;11.366;2023-07-30T13:24:50;25.20;94.30
8043;DHT22;4064;48.132;11.366;2023-07-30T13:27:16;25.10;94.30
8043;DHT22;4064;48.132;11.366;2023-07-30T13:29:42;24.80;93.90
8043;DHT22;4064;48.132;11.366;2023-07-30T13:32:08;24.10;94.90
8043;DHT22;4064;48.132;11.366;2023-07-30T13:34:34;22.60;99.90
8043;DHT22;4064;48.132;11.366;2023-07-30T13:37:00;21.50;99.90
8043;DHT22;4064;48.132;11.366;2023-07-30T13:39:25;21.20;99.90
8043;DHT22;4064;48.132;11.366;2023-07-30T13:41:51;21.40;99.90
8043;DHT22;4064;48.132;11.366;2023-07-30T13:44:17;22.30;99.90
8043;DHT22;4064;48.132;11.366;2023-07-30T13:46:42;22.80;99.90
8043;DHT22;4064;48.132;11.366;2023-07-30T13:49:08;22.80;99.90
8043;DHT22;4064;48.132;11.366;2023-07-30T13:51:34;22.80;99.90
8043;DHT22;4064;48.132;11.366;2023-07-30T13:54:00;23.40;99.90
8043;DHT22;4064;48.132;11.366;2023-07-30T13:56:27;23.60;99.90
8043;DHT22;4064;48.132;11.366;2023-07-30T13:58:54;23.30;99.90
8043;DHT22;4064;48.132;11.366;2023-07-30T14:01:19;23.60;99.90
8043;DHT22;4064;48.132;11.366;2023-07-30T14:03:45;23.90;99.90
8043;DHT22;4064;48.132;11.366;2023-07-30T14:06:11;24.20;99.90
8043;DHT22;4064;48.132;11.366;2023-07-30T14:08:37;24.10;99.90
8043;DHT22;4064;48.132;11.366;2023-07-30T14:11:03;24.30;99.90
8043;DHT22;4064;48.132;11.366;2023-07-30T14:13:28;24.20;99.90
8043;DHT22;4064;48.132;11.366;2023-07-30T14:15:54;23.80;99.90
8043;DHT22;4064;48.132;11.366;2023-07-30T14:18:20;23.40;99.90
8043;DHT22;4064;48.132;11.366;2023-07-30T14:20:46;23.20;99.90
8043;DHT22;4064;48.132;11.366;2023-07-30T14:23:11;23.40;99.90
8043;DHT22;4064;48.132;11.366;2023-07-30T14:25:37;23.80;99.90
8043;DHT22;4064;48.132;11.366;2023-07-30T14:28:04;23.90;99.90
8043;DHT22;4064;48.132;11.366;2023-07-30T14:30:30;23.70;99.90
8043;DHT22;4064;48.132;11.366;2023-07-30T14:32:56;23.40;99.90
8043;DHT22;4064;48.132;11.366;2023-07-30T14:35:22;23.10;99.90
8043;DHT22;4064;48.132;11.366;2023-07-30T14:37:48;23.00;99.90
8043;DHT22;4064;48.132;11.366;2023-07-30T14:40:15;23.30;99.90
8043;DHT22;4064;48.132;11.366;2023-07-30T14:42:40;23.60;99.90
8043;DHT22;4064;48.132;11.366;2023-07-30T14:45:07;23.70;99.90
8043;DHT22;4064;48.132;11.366;2023-07-30T14:47:32;23.80;99.90
8043;DHT22;4064;48.132;11.366;2023-07-30T14:49:58;23.70;99.90
8043;DHT22;4064;48.132;11.366;2023-07-30T14:52:24;23.70;99.90
8043;DHT22;4064;48.132;11.366;2023-07-30T14:54:51;23.70;99.90
8043;DHT22;4064;48.132;11.366;2023-07-30T14:57:17;23.90;99.90
8043;DHT22;4064;48.132;11.366;2023-07-30T14:59:42;23.90;99.90
8043;DHT22;4064;48.132;11.366;2023-07-30T15:02:08;24.00;99.90
8043;DHT22;4064;48.132;11.366;2023-07-30T15:04:34;23.90;99.50
8043;DHT22;4064;48.132;11.366;2023-07-30T15:07:00;23.70;99.00
8043;DHT22;4064;48.132;11.366;2023-07-30T15:09:26;23.40;97.70
8043;DHT22;4064;48.132;11.366;2023-07-30T15:11:51;23.10;98.90
8043;DHT22;4064;48.132;11.366;2023-07-30T15:14:17;23.00;98.50
8043;DHT22;4064;48.132;11.366;2023-07-30T15:16:43;23.20;99.50
8043;DHT22;4064;48.132;11.366;2023-07-30T15:19:08;23.00;97.50
8043;DHT22;4064;48.132;11.366;2023-07-30T15:21:34;22.90;97.10
8043;DHT22;4064;48.132;11.366;2023-07-30T15:24:03;22.90;97.40
8043;DHT22;4064;48.132;11.366;2023-07-30T15:26:28;22.80;97.40
8043;DHT22;4064;48.132;11.366;2023-07-30T15:28:54;22.80;98.30
8043;DHT22;4064;48.132;11.366;2023-07-30T15:31:20;23.10;96.90
8043;DHT22;4064;48.132;11.366;2023-07-30T15:33:45;23.30;96.40
8043;DHT22;4064;48.132;11.366;2023-07-30T15:36:11;23.30;95.50
8043;DHT22;4064;48.132;11.366;2023-07-30T15:38:37;23.30;94.60
8043;DHT22;4064;48.132;11.366;2023-07-30T15:41:02;23.30;94.00
8043;DHT22;4064;48.132;11.366;2023-07-30T15:43:28;23.30;94.00
8043;DHT22;4064;48.132;11.366;2023-07-30T15:45:54;23.30;92.90
8043;DHT22;4064;48.132;11.366;2023-07-30T15:48:30;23.00;93.60
8043;DHT22;4064;48.132;11.366;2023-07-30T15:50:55;22.80;94.10
8043;DHT22;4064;48.132;11.366;2023-07-30T15:53:21;22.60;94.20